Time;durP1;ratioP1;P1;durP2;ratioP2;P2;SDS_P1;SDS_P2;PMS_P1;PMS_P2;Temp;Humidity;BMP_temperature;BMP_pressure;BME280_temperature;BME280_humidity;BME280_pressure;Samples;Min_cycle;Max_cycle;Signal;HPM_P1;HPM_P2
2022/09/13 01:39:09;;;;;;;;;;;;;;;;;;;;;
2022/09/13 01:42:56;;;;;;;;;;;;;;;;;;;;;
2022/09/13 03:41:50;;;;;;;;;;;17.00;99.90;;;;;;6094784;23;20401;-80
2022/09/13 06:09:44;;;;;;;;;;;16.50;99.90;;;;;;6305677;22;19992;-81
2022/09/13 06:12:35;;;;;;;;;;;16.50;99.90;;;;;;6251533;22;19957;-81
2022/09/13 06:15:03;;;;;;;;;;;16.60;99.90;;;;;;6251324;22;19912;-78
2022/09/13 06:21:21;;;;;;;;;;;;;;;;;;;;;
2022/09/13 07:19:44;;;;;;;;;;;;;;;;;;;;;
2022/09/13 07:26:04;;;;;;;;;;;;;;;;;;;;;
2022/09/13 07:38:59;;;;;;;;;;;19.10;99.90;;;;;;6032175;23;19959;-81
2022/09/13 07:41:43;;;;;;;;;;;19.10;99.90;;;;;;6128935;23;20064;-79
2022/09/13 07:44:35;;;;;;;;;;;19.10;99.90;;;;;;6131671;23;19920;-80
2022/09/13 07:47:20;;;;;;;;;;;19.00;99.90;;;;;;6139910;22;19912;-78
2022/09/13 08:06:25;;;;;;;;;;;19.30;99.90;;;;;;6281738;22;20292;-78
2022/09/13 08:18:49;;;;;;;;;;;19.80;99.90;;;;;;6298933;22;19919;-81
2022/09/13 08:21:15;;;;;;;;;;;20.00;99.90;;;;;;6264294;22;19922;-77
2022/09/13 08:23:41;;;;;;;;;;;20.00;99.90;;;;;;6286371;22;19911;-77
2022/09/13 08:26:07;;;;;;;;;;;20.10;99.90;;;;;;6311861;22;19960;-78
2022/09/13 08:28:33;;;;;;;;;;;20.20;99.90;;;;;;6312259;22;19944;-77
2022/09/13 08:31:15;;;;;;;;;;;20.20;99.90;;;;;;6286459;22;20270;-79
2022/09/13 08:33:45;;;;;;;;;;;20.10;99.90;;;;;;6286059;22;20275;-78
2022/09/13 08:36:10;;;;;;;;;;;20.20;99.90;;;;;;6311769;22;19918;-79
2022/09/13 08:38:36;;;;;;;;;;;20.30;99.90;;;;;;6285974;22;19910;-77
2022/09/13 08:41:04;;;;;;;;;;;20.30;99.90;;;;;;6311786;22;20321;-77
2022/09/13 08:43:53;;;;;;;;;;;20.40;99.90;;;;;;6311807;22;19985;-77
2022/09/13 08:46:22;;;;;;;;;;;20.50;99.90;;;;;;6295470;22;20382;-77
2022/09/13 08:48:49;;;;;;;;;;;20.40;99.90;;;;;;6312623;22;19961;-77
2022/09/13 08:51:28;;;;;;;;;;;20.40;99.90;;;;;;6285936;22;19917;-77
2022/09/13 08:53:54;;;;;;;;;;;20.50;99.90;;;;;;6311799;22;19956;-77
2022/09/13 08:56:23;;;;;;;;;;;20.60;99.90;;;;;;6285960;22;19910;-78
2022/09/13 08:59:00;;;;;;;;;;;20.60;99.90;;;;;;6285883;22;20228;-78
2022/09/13 09:01:42;;;;;;;;;;;20.70;99.90;;;;;;6285059;22;19918;-77
2022/09/13 09:04:26;;;;;;;;;;;20.80;99.90;;;;;;6310618;22;20374;-78
2022/09/13 09:07:12;;;;;;;;;;;20.90;99.90;;;;;;6310058;22;19915;-82
2022/09/13 09:12:55;;;;;;;;;;;20.90;99.90;;;;;;6311508;22;20317;-82
2022/09/13 09:23:11;;;;;;;;;;;20.00;99.90;;;;;;6245187;22;19915;-82
2022/09/13 09:29:45;;;;;;;;;;;20.60;99.90;;;;;;6189521;23;19918;-80
2022/09/13 09:39:22;;;;;;;;;;;20.70;99.90;;;;;;6313155;22;20284;-80
2022/09/13 09:42:03;;;;;;;;;;;20.80;99.90;;;;;;6159407;23;19943;-78
2022/09/13 09:44:32;;;;;;;;;;;21.20;99.90;;;;;;6293900;22;19918;-77
2022/09/13 09:46:58;;;;;;;;;;;21.20;99.90;;;;;;6313335;22;19986;-78
2022/09/13 09:52:27;;;;;;;;;;;20.90;99.90;;;;;;6313518;22;19910;-79
2022/09/13 09:54:56;;;;;;;;;;;20.90;99.90;;;;;;6288081;22;20220;-78
2022/09/13 09:57:41;;;;;;;;;;;21.10;99.90;;;;;;6313697;22;20033;-78
2022/09/13 10:00:11;;;;;;;;;;;21.30;99.90;;;;;;6287245;22;19986;-78
2022/09/13 10:02:42;;;;;;;;;;;21.30;99.90;;;;;;6287043;22;19919;-79
2022/09/13 10:08:34;;;;;;;;;;;21.00;99.90;;;;;;6340962;22;19925;-81
2022/09/13 10:11:01;;;;;;;;;;;20.90;99.90;;;;;;6287680;22;19910;-80
2022/09/13 10:13:27;;;;;;;;;;;20.70;99.90;;;;;;6313227;22;19911;-79
2022/09/13 10:15:57;;;;;;;;;;;20.70;99.90;;;;;;6313792;22;19942;-77
2022/09/13 10:18:24;;;;;;;;;;;20.90;99.90;;;;;;6287899;22;19914;-72
2022/09/13 10:21:05;;;;;;;;;;;20.80;99.90;;;;;;6309105;22;19923;-75
2022/09/13 10:23:36;;;;;;;;;;;20.70;99.90;;;;;;6340481;22;20206;-75
2022/09/13 10:26:07;;;;;;;;;;;20.80;99.90;;;;;;6287810;22;19964;-75
2022/09/13 10:28:45;;;;;;;;;;;21.00;99.90;;;;;;6287476;22;19922;-82
2022/09/13 10:31:57;;;;;;;;;;;21.10;99.90;;;;;;6286193;22;20310;-82
2022/09/13 10:34:36;;;;;;;;;;;21.20;99.90;;;;;;6312978;22;20274;-76
2022/09/13 10:37:16;;;;;;;;;;;21.00;99.90;;;;;;6313390;22;19911;-78
2022/09/13 10:40:00;;;;;;;;;;;20.90;99.90;;;;;;6312860;22;19996;-79
2022/09/13 10:42:27;;;;;;;;;;;20.80;99.90;;;;;;6287061;22;19938;-79
2022/09/13 10:44:54;;;;;;;;;;;21.00;99.90;;;;;;6287027;22;19911;-77
2022/09/13 10:47:30;;;;;;;;;;;21.20;99.90;;;;;;6312774;22;19911;-76
2022/09/13 10:49:56;;;;;;;;;;;21.30;99.90;;;;;;6287210;22;19914;-79
2022/09/13 10:52:35;;;;;;;;;;;21.60;99.90;;;;;;6312746;22;20299;-80
2022/09/13 10:55:17;;;;;;;;;;;21.60;99.90;;;;;;6287258;22;19917;-79
2022/09/13 10:57:47;;;;;;;;;;;21.50;99.90;;;;;;6312400;22;19911;-81
2022/09/13 11:00:19;;;;;;;;;;;21.40;99.90;;;;;;6286670;22;19949;-83
2022/09/13 11:02:56;;;;;;;;;;;21.30;99.90;;;;;;6288183;22;19956;-80
2022/09/13 11:05:36;;;;;;;;;;;21.20;99.90;;;;;;6286184;22;19964;-79
2022/09/13 11:08:20;;;;;;;;;;;21.30;99.90;;;;;;6286873;22;19940;-75
2022/09/13 11:11:07;;;;;;;;;;;21.20;99.90;;;;;;6288002;22;20041;-78
2022/09/13 11:13:44;;;;;;;;;;;21.40;99.90;;;;;;6287182;22;19921;-77
2022/09/13 11:16:35;;;;;;;;;;;21.70;99.90;;;;;;6324503;22;19932;-78
2022/09/13 11:19:07;;;;;;;;;;;21.70;99.90;;;;;;6312256;22;19926;-78
2022/09/13 11:21:33;;;;;;;;;;;21.50;99.90;;;;;;6310238;22;19915;-74
2022/09/13 11:24:05;;;;;;;;;;;21.30;99.90;;;;;;6310701;22;19942;-79
2022/09/13 11:26:47;;;;;;;;;;;21.20;99.90;;;;;;6310527;22;19910;-78
2022/09/13 11:29:19;;;;;;;;;;;21.20;99.90;;;;;;6336633;22;19903;-81
2022/09/13 11:32:00;;;;;;;;;;;21.30;99.90;;;;;;6311857;22;19915;-79
2022/09/13 11:34:32;;;;;;;;;;;21.30;99.90;;;;;;6307558;22;19983;-82
2022/09/13 11:37:18;;;;;;;;;;;20.90;99.90;;;;;;6307871;22;20234;-79
2022/09/13 11:39:50;;;;;;;;;;;20.70;99.90;;;;;;6307172;22;19954;-80
2022/09/13 11:42:34;;;;;;;;;;;20.80;99.90;;;;;;6281158;22;19915;-79
2022/09/13 11:45:13;;;;;;;;;;;21.00;99.90;;;;;;6281824;22;20336;-85
2022/09/13 11:47:39;;;;;;;;;;;21.10;99.90;;;;;;6280373;22;19918;-74
2022/09/13 11:50:16;;;;;;;;;;;21.20;99.90;;;;;;6308418;22;19911;-78
2022/09/13 11:53:01;;;;;;;;;;;21.20;99.90;;;;;;6281087;22;19917;-77
2022/09/13 11:55:26;;;;;;;;;;;21.30;99.90;;;;;;6281209;22;19910;-76
2022/09/13 11:57:54;;;;;;;;;;;21.40;99.90;;;;;;6281054;22;19918;-77
2022/09/13 12:00:21;;;;;;;;;;;21.30;99.90;;;;;;6306964;22;19915;-77
2022/09/13 12:02:56;;;;;;;;;;;21.30;99.90;;;;;;6280953;22;20337;-76
2022/09/13 12:05:23;;;;;;;;;;;21.30;99.90;;;;;;6306859;22;19946;-78
2022/09/13 12:07:52;;;;;;;;;;;21.10;99.90;;;;;;6307059;22;20229;-77
2022/09/13 12:10:24;;;;;;;;;;;21.20;99.90;;;;;;6306715;22;19918;-76
2022/09/13 12:12:50;;;;;;;;;;;21.20;99.90;;;;;;6307012;22;19911;-77
2022/09/13 12:15:19;;;;;;;;;;;21.20;99.90;;;;;;6281222;22;19915;-76
2022/09/13 12:17:54;;;;;;;;;;;21.10;99.90;;;;;;6280978;22;19915;-77
2022/09/13 12:20:20;;;;;;;;;;;20.90;99.90;;;;;;6281362;22;20325;-77
2022/09/13 12:22:46;;;;;;;;;;;20.80;99.90;;;;;;6306771;22;19919;-77
2022/09/13 12:25:23;;;;;;;;;;;20.80;99.90;;;;;;6306978;22;19915;-77
2022/09/13 12:28:04;;;;;;;;;;;20.70;99.90;;;;;;6281309;22;19915;-77
2022/09/13 12:30:43;;;;;;;;;;;20.90;99.90;;;;;;6281242;22;19915;-77
2022/09/13 12:33:12;;;;;;;;;;;20.80;99.90;;;;;;6306939;22;19968;-76
2022/09/13 12:35:56;;;;;;;;;;;20.80;99.90;;;;;;6280987;22;20379;-78
2022/09/13 12:38:30;;;;;;;;;;;20.60;99.90;;;;;;6280923;22;20313;-77
2022/09/13 12:41:18;;;;;;;;;;;20.60;99.90;;;;;;6307356;22;19914;-77
2022/09/13 12:43:53;;;;;;;;;;;20.60;99.90;;;;;;6281350;22;20374;-77
2022/09/13 12:46:28;;;;;;;;;;;20.60;99.90;;;;;;6306872;22;19946;-77
2022/09/13 12:49:09;;;;;;;;;;;20.70;99.90;;;;;;6306962;22;19915;-78
2022/09/13 12:51:37;;;;;;;;;;;20.90;99.90;;;;;;6306890;22;19919;-76
2022/09/13 12:54:15;;;;;;;;;;;20.80;99.90;;;;;;6307471;22;19914;-76
2022/09/13 12:56:44;;;;;;;;;;;20.90;99.90;;;;;;6309197;22;19938;-76
2022/09/13 12:59:22;;;;;;;;;;;20.80;99.90;;;;;;6308985;22;19915;-76
2022/09/13 13:01:48;;;;;;;;;;;20.70;99.90;;;;;;6308893;22;19953;-76
2022/09/13 13:04:16;;;;;;;;;;;20.70;99.90;;;;;;6309078;22;19915;-75
2022/09/13 13:06:48;;;;;;;;;;;20.90;99.90;;;;;;6283138;22;19914;-77
2022/09/13 13:09:32;;;;;;;;;;;20.90;99.90;;;;;;6309009;22;19977;-67
2022/09/13 13:11:58;;;;;;;;;;;20.90;99.90;;;;;;6282906;22;19919;-71
2022/09/13 13:14:29;;;;;;;;;;;20.80;99.90;;;;;;6308952;22;19922;-68
2022/09/13 13:17:14;;;;;;;;;;;20.70;99.90;;;;;;6283159;22;19982;-69
2022/09/13 13:19:41;;;;;;;;;;;20.70;99.90;;;;;;6308906;22;19915;-72
2022/09/13 13:22:25;;;;;;;;;;;20.70;99.90;;;;;;6323178;22;19953;-68
2022/09/13 13:24:54;;;;;;;;;;;20.70;99.90;;;;;;6314115;22;19914;-69
2022/09/13 13:27:32;;;;;;;;;;;20.80;99.90;;;;;;6313961;22;19915;-73
2022/09/13 13:30:23;;;;;;;;;;;20.90;99.90;;;;;;6341387;22;19919;-71
2022/09/13 13:33:11;;;;;;;;;;;20.90;99.90;;;;;;6313549;22;19921;-70
2022/09/13 13:35:36;;;;;;;;;;;20.80;99.90;;;;;;6287996;22;20301;-70
2022/09/13 13:38:14;;;;;;;;;;;20.70;99.90;;;;;;6313725;22;19922;-68
2022/09/13 13:40:40;;;;;;;;;;;20.70;99.90;;;;;;6287899;22;20212;-69
2022/09/13 13:43:27;;;;;;;;;;;20.70;99.90;;;;;;6288063;22;19915;-68
2022/09/13 13:45:57;;;;;;;;;;;20.60;99.90;;;;;;6339882;22;19915;-70
2022/09/13 13:48:34;;;;;;;;;;;20.60;99.90;;;;;;6287876;22;19914;-68
2022/09/13 13:51:11;;;;;;;;;;;20.60;99.90;;;;;;6313766;22;20228;-72
2022/09/13 13:53:40;;;;;;;;;;;20.60;99.90;;;;;;6341276;22;19998;-72
2022/09/13 13:56:25;;;;;;;;;;;20.50;99.90;;;;;;6313352;22;19915;-70
2022/09/13 13:58:54;;;;;;;;;;;20.30;99.90;;;;;;6313454;22;20374;-72
2022/09/13 14:01:22;;;;;;;;;;;20.20;99.90;;;;;;6287637;22;20323;-70
2022/09/13 14:04:06;;;;;;;;;;;20.10;99.90;;;;;;6313568;22;20451;-69
2022/09/13 14:06:35;;;;;;;;;;;20.10;99.90;;;;;;6340978;22;19937;-78
2022/09/13 14:09:01;;;;;;;;;;;20.10;99.90;;;;;;6287305;22;20325;-79
2022/09/13 14:11:29;;;;;;;;;;;20.10;99.90;;;;;;6313096;22;19911;-78
2022/09/13 14:13:58;;;;;;;;;;;20.10;99.90;;;;;;6287301;22;19914;-79
2022/09/13 14:16:35;;;;;;;;;;;20.10;99.90;;;;;;6312714;22;19914;-80
2022/09/13 14:19:21;;;;;;;;;;;20.00;99.90;;;;;;6286663;22;19910;-80
2022/09/13 14:22:06;;;;;;;;;;;20.10;99.90;;;;;;6286130;22;19943;-80
2022/09/13 14:24:36;;;;;;;;;;;20.00;99.90;;;;;;6286899;22;19911;-80
2022/09/13 14:27:02;;;;;;;;;;;20.10;99.90;;;;;;6285792;22;19972;-80
2022/09/13 14:29:27;;;;;;;;;;;20.10;99.90;;;;;;6286832;22;20313;-80
2022/09/13 14:31:54;;;;;;;;;;;20.00;99.90;;;;;;6285764;22;19917;-80
2022/09/13 14:34:21;;;;;;;;;;;19.90;99.90;;;;;;6286264;22;19922;-80
2022/09/13 14:36:52;;;;;;;;;;;19.90;99.90;;;;;;6286536;22;20328;-79
2022/09/13 14:39:18;;;;;;;;;;;19.80;99.90;;;;;;6286360;22;19965;-79
2022/09/13 14:41:43;;;;;;;;;;;19.90;99.90;;;;;;6286802;22;19929;-79
2022/09/13 14:44:13;;;;;;;;;;;19.80;99.90;;;;;;6286494;22;19978;-80
2022/09/13 14:46:41;;;;;;;;;;;19.80;99.90;;;;;;6286666;22;19911;-80
2022/09/13 14:49:09;;;;;;;;;;;19.80;99.90;;;;;;6286214;22;19910;-79
2022/09/13 14:51:34;;;;;;;;;;;19.80;99.90;;;;;;6286749;22;19956;-81
2022/09/13 14:54:05;;;;;;;;;;;19.80;99.90;;;;;;6286810;22;19914;-79
2022/09/13 14:56:36;;;;;;;;;;;19.80;99.90;;;;;;6286738;22;19910;-79
2022/09/13 14:59:05;;;;;;;;;;;19.90;99.90;;;;;;6286401;22;19921;-79
2022/09/13 15:01:32;;;;;;;;;;;19.60;99.90;;;;;;6286015;22;19936;-80
2022/09/13 15:03:58;;;;;;;;;;;19.60;99.90;;;;;;6286346;22;19914;-79
2022/09/13 15:06:26;;;;;;;;;;;19.50;99.90;;;;;;6286090;22;19981;-78
2022/09/13 15:08:52;;;;;;;;;;;19.50;99.90;;;;;;6286669;22;19959;-79
2022/09/13 15:11:32;;;;;;;;;;;19.50;99.90;;;;;;6286514;22;19950;-79
2022/09/13 15:14:21;;;;;;;;;;;19.50;99.90;;;;;;6286807;22;19918;-79
2022/09/13 15:16:52;;;;;;;;;;;19.50;99.90;;;;;;6270478;22;19910;-79
2022/09/13 15:19:23;;;;;;;;;;;19.40;99.90;;;;;;6287012;22;19921;-79
2022/09/13 15:21:49;;;;;;;;;;;19.50;99.90;;;;;;6286564;22;19915;-79
2022/09/13 15:24:27;;;;;;;;;;;19.50;99.90;;;;;;6286958;22;19917;-79
2022/09/13 15:27:05;;;;;;;;;;;19.60;99.90;;;;;;6312423;22;20005;-79
2022/09/13 15:29:33;;;;;;;;;;;19.60;99.90;;;;;;6286844;22;19924;-79
2022/09/13 15:32:00;;;;;;;;;;;19.60;99.90;;;;;;6312267;22;19911;-79
2022/09/13 15:34:27;;;;;;;;;;;19.60;99.90;;;;;;6312592;22;20317;-79
2022/09/13 15:37:12;;;;;;;;;;;19.60;99.90;;;;;;6312199;22;19915;-79
2022/09/13 15:39:46;;;;;;;;;;;19.60;99.90;;;;;;6287123;22;19989;-79
2022/09/13 15:42:12;;;;;;;;;;;19.50;99.90;;;;;;6286704;22;20202;-80
2022/09/13 15:44:42;;;;;;;;;;;19.40;99.90;;;;;;6286917;22;19929;-79
2022/09/13 15:47:14;;;;;;;;;;;19.50;99.90;;;;;;6261267;22;19914;-79
2022/09/13 15:49:45;;;;;;;;;;;19.40;99.90;;;;;;6286831;22;20269;-79
2022/09/13 15:52:11;;;;;;;;;;;19.30;99.90;;;;;;6286695;22;19910;-79
2022/09/13 15:54:38;;;;;;;;;;;19.30;99.90;;;;;;6286347;22;20262;-79
2022/09/13 15:57:16;;;;;;;;;;;19.30;99.90;;;;;;6286774;22;19918;-79
2022/09/13 15:59:42;;;;;;;;;;;19.20;99.90;;;;;;6312439;22;19922;-80
2022/09/13 16:02:18;;;;;;;;;;;19.20;99.90;;;;;;6286628;22;19914;-79
2022/09/13 16:04:44;;;;;;;;;;;19.20;99.90;;;;;;6286377;22;19957;-80
2022/09/13 16:07:10;;;;;;;;;;;19.20;99.90;;;;;;6312438;22;20225;-80
2022/09/13 16:09:37;;;;;;;;;;;19.20;99.90;;;;;;6286226;22;19952;-78
2022/09/13 16:12:03;;;;;;;;;;;19.20;99.90;;;;;;6286314;22;19986;-80
2022/09/13 16:14:28;;;;;;;;;;;19.10;99.90;;;;;;6286295;22;19948;-79
2022/09/13 16:16:55;;;;;;;;;;;19.10;99.90;;;;;;6312449;22;19925;-80
2022/09/13 16:19:21;;;;;;;;;;;19.10;99.90;;;;;;6286247;22;19914;-80
2022/09/13 16:21:47;;;;;;;;;;;19.00;99.90;;;;;;6281059;22;19958;-81
2022/09/13 16:24:16;;;;;;;;;;;19.00;99.90;;;;;;6281813;22;19911;-80
2022/09/13 16:26:42;;;;;;;;;;;19.00;99.90;;;;;;6280859;22;19963;-80
2022/09/13 16:29:11;;;;;;;;;;;19.00;99.90;;;;;;6280177;22;19915;-80
2022/09/13 16:31:37;;;;;;;;;;;18.90;99.90;;;;;;6280842;22;20314;-80
2022/09/13 16:34:02;;;;;;;;;;;18.80;99.90;;;;;;6307116;22;19918;-81
2022/09/13 16:36:28;;;;;;;;;;;18.70;99.90;;;;;;6281181;22;19961;-80
2022/09/13 16:38:54;;;;;;;;;;;18.70;99.90;;;;;;6280746;22;20318;-80
2022/09/13 16:41:20;;;;;;;;;;;18.70;99.90;;;;;;6280872;22;19911;-80
2022/09/13 16:43:45;;;;;;;;;;;18.70;99.90;;;;;;6306547;22;19917;-80
2022/09/13 16:46:12;;;;;;;;;;;18.60;99.90;;;;;;6306981;22;19946;-80
2022/09/13 16:48:38;;;;;;;;;;;18.50;99.90;;;;;;6281933;22;19941;-80
2022/09/13 16:51:09;;;;;;;;;;;18.40;99.90;;;;;;6280925;22;19911;-79
2022/09/13 16:53:37;;;;;;;;;;;18.30;99.90;;;;;;6280863;22;19917;-80
2022/09/13 16:56:12;;;;;;;;;;;18.20;99.90;;;;;;6281501;22;19911;-79
2022/09/13 16:58:39;;;;;;;;;;;18.10;99.90;;;;;;6280515;22;19958;-78
2022/09/13 17:01:09;;;;;;;;;;;18.00;99.90;;;;;;6307124;22;20341;-81
2022/09/13 17:03:36;;;;;;;;;;;17.90;99.90;;;;;;6306851;22;19911;-79
2022/09/13 17:06:03;;;;;;;;;;;17.80;99.90;;;;;;6280798;22;20303;-77
2022/09/13 17:08:30;;;;;;;;;;;17.70;99.90;;;;;;6306517;22;19994;-80
2022/09/13 17:10:56;;;;;;;;;;;17.50;99.90;;;;;;6280992;22;19960;-78
2022/09/13 17:13:24;;;;;;;;;;;17.60;99.90;;;;;;6307798;22;19911;-79
2022/09/13 17:15:50;;;;;;;;;;;17.50;99.90;;;;;;6280776;22;19911;-79
2022/09/13 17:18:16;;;;;;;;;;;17.40;99.90;;;;;;6280935;22;20656;-77
2022/09/13 17:20:43;;;;;;;;;;;17.40;99.90;;;;;;6285132;22;19918;-79
2022/09/13 17:23:09;;;;;;;;;;;17.30;99.90;;;;;;6297419;22;19915;-79
2022/09/13 17:25:34;;;;;;;;;;;17.20;99.90;;;;;;6311618;22;19910;-79
2022/09/13 17:28:00;;;;;;;;;;;17.10;99.90;;;;;;6285761;22;20206;-77
2022/09/13 17:30:26;;;;;;;;;;;17.10;99.90;;;;;;6286047;22;19918;-79
2022/09/13 17:32:51;;;;;;;;;;;17.00;99.90;;;;;;6286280;22;19910;-79
2022/09/13 17:35:17;;;;;;;;;;;16.90;99.90;;;;;;6311150;22;19957;-78
2022/09/13 17:37:43;;;;;;;;;;;16.80;99.90;;;;;;6284769;22;19921;-77
2022/09/13 17:40:08;;;;;;;;;;;16.80;99.90;;;;;;6286081;22;19911;-79
2022/09/13 17:42:34;;;;;;;;;;;16.80;99.90;;;;;;6286812;22;19910;-79
2022/09/13 17:44:59;;;;;;;;;;;16.70;99.90;;;;;;6287069;22;19921;-78
2022/09/13 17:47:25;;;;;;;;;;;16.70;99.90;;;;;;6287166;22;19910;-79
2022/09/13 17:49:51;;;;;;;;;;;16.70;99.90;;;;;;6313102;22;19911;-78
2022/09/13 17:52:16;;;;;;;;;;;16.70;99.90;;;;;;6286595;22;20364;-79
2022/09/13 17:54:42;;;;;;;;;;;16.60;99.90;;;;;;6287364;22;19965;-78
2022/09/13 17:57:10;;;;;;;;;;;16.60;99.90;;;;;;6287108;22;19924;-78
2022/09/13 17:59:36;;;;;;;;;;;16.60;99.90;;;;;;6313032;22;19959;-78
2022/09/13 18:02:02;;;;;;;;;;;16.60;99.90;;;;;;6313263;22;19990;-80
2022/09/13 18:04:27;;;;;;;;;;;16.60;99.90;;;;;;6313687;22;20389;-78
2022/09/13 18:06:53;;;;;;;;;;;16.60;99.90;;;;;;6313132;22;20359;-79
2022/09/13 18:09:19;;;;;;;;;;;16.60;99.90;;;;;;6287474;22;19910;-77
2022/09/13 18:11:45;;;;;;;;;;;16.50;99.90;;;;;;6315237;22;19910;-79
2022/09/13 18:14:15;;;;;;;;;;;16.50;99.90;;;;;;6341668;22;19933;-80
2022/09/13 18:16:41;;;;;;;;;;;16.40;99.90;;;;;;6336429;22;19937;-80
2022/09/13 18:19:08;;;;;;;;;;;16.40;99.90;;;;;;6310017;22;19914;-79
2022/09/13 18:21:34;;;;;;;;;;;16.40;99.90;;;;;;6335653;22;19915;-79
2022/09/13 18:24:02;;;;;;;;;;;16.30;99.90;;;;;;6312249;22;19910;-80
2022/09/13 18:26:29;;;;;;;;;;;16.30;99.90;;;;;;6287109;22;19922;-79
2022/09/13 18:28:57;;;;;;;;;;;16.20;99.90;;;;;;6287333;22;19910;-80
2022/09/13 18:31:23;;;;;;;;;;;16.20;99.90;;;;;;6287485;22;19911;-78
2022/09/13 18:33:53;;;;;;;;;;;16.20;99.90;;;;;;6286925;22;19916;-78
2022/09/13 18:40:31;;;;;;;;;;;16.10;99.90;;;;;;6338912;22;20241;-79
2022/09/13 19:13:22;;;;;;;;;;;15.80;99.90;;;;;;6120442;23;19963;-80
2022/09/13 19:18:52;;;;;;;;;;;15.70;99.90;;;;;;6211147;22;20301;-83
2022/09/13 19:22:10;;;;;;;;;;;;;;;;;;;;;
2022/09/13 19:24:53;;;;;;;;;;;15.60;99.90;;;;;;6185986;22;19938;-79
2022/09/13 19:27:19;;;;;;;;;;;15.40;99.90;;;;;;6305167;22;19911;-79
2022/09/13 19:29:45;;;;;;;;;;;15.40;99.90;;;;;;6281065;22;19911;-80
2022/09/13 19:32:14;;;;;;;;;;;15.30;99.90;;;;;;6280835;22;19910;-80
2022/09/13 19:34:43;;;;;;;;;;;15.30;99.90;;;;;;6281946;22;19989;-81
2022/09/13 19:37:11;;;;;;;;;;;15.30;99.90;;;;;;6282072;22;19917;-77
2022/09/13 19:39:44;;;;;;;;;;;15.20;99.90;;;;;;6279766;22;19919;-81
2022/09/13 19:42:13;;;;;;;;;;;15.20;99.90;;;;;;6279336;22;20301;-84
2022/09/13 19:44:38;;;;;;;;;;;15.20;99.90;;;;;;6279948;22;19937;-78
2022/09/13 19:47:08;;;;;;;;;;;15.20;99.90;;;;;;6281621;22;19949;-75
2022/09/13 19:49:36;;;;;;;;;;;15.20;99.90;;;;;;6279926;22;19964;-74
2022/09/13 20:09:12;;;;;;;;;;;14.70;99.90;;;;;;6317877;22;20376;-77
2022/09/13 20:11:44;;;;;;;;;;;14.70;99.90;;;;;;6310309;22;19918;-78
2022/09/13 22:01:40;;;;;;;;;;;13.60;99.90;;;;;;6247022;23;19923;-76
2022/09/13 22:04:08;;;;;;;;;;;13.60;99.90;;;;;;6219353;23;19916;-77
2022/09/13 22:06:34;;;;;;;;;;;13.60;99.90;;;;;;6215602;23;20020;-76
2022/09/13 22:09:01;;;;;;;;;;;13.60;99.90;;;;;;6215463;23;20314;-77
2022/09/13 22:11:28;;;;;;;;;;;13.70;99.90;;;;;;6215168;23;20134;-77
2022/09/13 22:13:54;;;;;;;;;;;13.70;99.90;;;;;;6190149;23;19916;-77
2022/09/13 22:16:21;;;;;;;;;;;13.80;99.90;;;;;;6215074;23;20319;-77
2022/09/13 22:18:47;;;;;;;;;;;13.80;99.90;;;;;;6214794;23;19962;-78
2022/09/13 22:21:15;;;;;;;;;;;13.90;99.90;;;;;;6215189;23;20307;-76
2022/09/13 22:23:41;;;;;;;;;;;14.00;99.90;;;;;;6215145;23;20372;-76
2022/09/13 22:26:07;;;;;;;;;;;14.00;99.90;;;;;;6215635;23;19916;-76
2022/09/13 22:28:33;;;;;;;;;;;14.10;99.90;;;;;;6215135;23;19912;-78
2022/09/13 22:31:03;;;;;;;;;;;14.10;99.90;;;;;;6215315;23;19912;-80
2022/09/13 22:33:28;;;;;;;;;;;14.10;99.90;;;;;;6215123;23;19975;-78
2022/09/13 22:36:01;;;;;;;;;;;14.20;99.90;;;;;;6215583;23;19912;-78
2022/09/13 22:38:27;;;;;;;;;;;14.10;99.90;;;;;;6215395;23;20307;-77
2022/09/13 22:40:54;;;;;;;;;;;14.10;99.90;;;;;;6215241;23;19923;-78
2022/09/13 22:43:19;;;;;;;;;;;14.10;99.90;;;;;;6215147;23;20319;-78
2022/09/13 22:45:45;;;;;;;;;;;14.20;99.90;;;;;;6215530;23;19912;-77
2022/09/13 22:48:11;;;;;;;;;;;14.10;99.90;;;;;;6215381;23;19943;-79
2022/09/13 22:50:37;;;;;;;;;;;14.20;99.90;;;;;;6215247;23;19912;-77
2022/09/13 22:53:02;;;;;;;;;;;14.20;99.90;;;;;;6214640;23;19912;-79
2022/09/13 22:55:28;;;;;;;;;;;14.20;99.90;;;;;;6215062;23;19962;-77
2022/09/13 22:57:53;;;;;;;;;;;14.30;99.90;;;;;;6215052;23;19927;-78
2022/09/13 23:00:19;;;;;;;;;;;14.30;99.90;;;;;;6207813;23;19922;-78
2022/09/13 23:02:45;;;;;;;;;;;14.30;99.90;;;;;;6244973;22;19915;-77
2022/09/13 23:05:10;;;;;;;;;;;14.30;99.90;;;;;;6245608;23;19942;-77
2022/09/13 23:07:36;;;;;;;;;;;14.40;99.90;;;;;;6245458;23;19915;-79
2022/09/13 23:10:02;;;;;;;;;;;14.40;99.90;;;;;;6219428;23;19939;-78
2022/09/13 23:12:28;;;;;;;;;;;14.40;99.90;;;;;;6245381;22;19946;-76
2022/09/13 23:14:53;;;;;;;;;;;14.40;99.90;;;;;;6244891;23;19918;-80
2022/09/13 23:17:19;;;;;;;;;;;14.50;99.90;;;;;;6245267;23;19912;-80
2022/09/13 23:19:44;;;;;;;;;;;14.50;99.90;;;;;;6219774;23;19920;-77
2022/09/13 23:22:10;;;;;;;;;;;14.50;99.90;;;;;;6244864;22;19911;-77
2022/09/13 23:24:35;;;;;;;;;;;14.50;99.90;;;;;;6244928;23;19916;-77
2022/09/13 23:27:01;;;;;;;;;;;14.60;99.90;;;;;;6245350;23;19923;-78
2022/09/13 23:29:26;;;;;;;;;;;14.60;99.90;;;;;;6245001;23;20045;-78
2022/09/13 23:31:52;;;;;;;;;;;14.50;99.90;;;;;;6246771;22;19920;-77
2022/09/13 23:34:18;;;;;;;;;;;14.50;99.90;;;;;;6244993;22;19958;-78
2022/09/13 23:36:45;;;;;;;;;;;14.50;99.90;;;;;;6245171;23;20322;-77
2022/09/13 23:39:14;;;;;;;;;;;14.50;99.90;;;;;;6244611;23;19938;-78
2022/09/13 23:41:39;;;;;;;;;;;14.50;99.90;;;;;;6244552;23;19986;-78
2022/09/13 23:44:05;;;;;;;;;;;14.50;99.90;;;;;;6244907;22;19943;-77
2022/09/13 23:46:30;;;;;;;;;;;14.50;99.90;;;;;;6244702;23;19918;-78
2022/09/13 23:48:56;;;;;;;;;;;14.50;99.90;;;;;;6245187;23;19919;-78
2022/09/13 23:51:22;;;;;;;;;;;14.60;99.90;;;;;;6244704;23;19937;-77
2022/09/13 23:53:49;;;;;;;;;;;14.70;99.90;;;;;;6244695;22;19969;-76
2022/09/13 23:56:15;;;;;;;;;;;14.60;99.90;;;;;;6244560;23;19918;-77
2022/09/13 23:58:41;;;;;;;;;;;14.70;99.90;;;;;;6244839;23;19919;-77
